Time,TemperatureF,DewpointF,PressureIn,WindDirection,WindDirectionDegrees,WindSpeedMPH,WindSpeedGustMPH,Humidity,HourlyPrecipIn,Conditions,Clouds,dailyrainin,SoftwareType,DateUTC
2013-09-24 00:13:00,59.0,50.0,29.87,North,-999,-999.0,-999.0,72,-99.99,,,-99.99,,2013-09-24 05:13:00,
2013-09-24 00:23:00,59.0,50.0,29.88,North,-999,-999.0,-999.0,72,-99.99,,,-99.99,,2013-09-24 05:23:00,
2013-09-24 00:43:00,57.0,50.0,29.88,North,-999,-999.0,-999.0,76,-99.99,,,-99.99,,2013-09-24 05:43:00,
2013-09-24 00:53:00,57.0,50.0,29.88,North,-999,-999.0,-999.0,76,-99.99,,,-99.99,,2013-09-24 05:53:00,
2013-09-24 01:02:00,57.0,50.0,29.88,North,-999,-999.0,-999.0,76,-99.99,,,-99.99,,2013-09-24 06:02:00,
2013-09-24 01:12:00,57.0,50.0,29.88,North,-999,-999.0,-999.0,76,-99.99,,,-99.99,,2013-09-24 06:12:00,
2013-09-24 01:42:00,55.0,50.0,29.88,North,-999,-999.0,-999.0,81,-99.99,,,-99.99,,2013-09-24 06:42:00,
2013-09-24 01:52:00,55.0,50.0,29.88,North,-999,-999.0,-999.0,81,-99.99,,,-99.99,,2013-09-24 06:52:00,
2013-09-24 02:03:00,55.0,50.0,29.88,North,-999,-999.0,-999.0,81,-99.99,,,-99.99,,2013-09-24 07:03:00,
2013-09-24 02:12:00,55.0,50.0,29.88,North,-999,-999.0,-999.0,81,-99.99,,,-99.99,,2013-09-24 07:12:00,
2013-09-24 02:22:00,57.0,50.0,29.89,North,-999,-999.0,-999.0,76,-99.99,,,-99.99,,2013-09-24 07:22:00,
2013-09-24 02:32:00,57.0,50.0,29.89,North,-999,-999.0,-999.0,76,-99.99,,,-99.99,,2013-09-24 07:32:00,
2013-09-24 02:52:00,57.0,50.0,29.89,North,-999,-999.0,-999.0,76,-99.99,,,-99.99,,2013-09-24 07:52:00,
2013-09-24 03:11:00,57.0,50.0,29.89,North,-999,-999.0,-999.0,76,-99.99,,,-99.99,,2013-09-24 08:11:00,
2013-09-24 03:22:00,57.0,50.0,29.89,North,-999,-999.0,-999.0,76,-99.99,,,-99.99,,2013-09-24 08:22:00,
2013-09-24 03:32:00,57.0,50.0,29.89,North,-999,-999.0,-999.0,76,-99.99,,,-99.99,,2013-09-24 08:32:00,
2013-09-24 03:52:00,55.0,50.0,29.89,North,-999,-999.0,-999.0,81,-99.99,,,-99.99,,2013-09-24 08:52:00,
2013-09-24 04:12:00,55.0,50.0,29.90,North,-999,-999.0,-999.0,81,-99.99,,,-99.99,,2013-09-24 09:12:00,
2013-09-24 04:21:00,55.0,48.0,29.90,North,-999,-999.0,-999.0,76,-99.99,,,-99.99,,2013-09-24 09:21:00,
2013-09-24 04:33:00,55.0,48.0,29.90,North,-999,-999.0,-999.0,76,-99.99,,,-99.99,,2013-09-24 09:33:00,
2013-09-24 04:53:00,54.0,48.0,29.90,North,-999,-999.0,-999.0,81,-99.99,,,-99.99,,2013-09-24 09:53:00,
2013-09-24 05:13:00,54.0,48.0,29.90,North,-999,-999.0,-999.0,81,-99.99,,,-99.99,,2013-09-24 10:13:00,
2013-09-24 05:23:00,54.0,48.0,29.90,North,-999,-999.0,-999.0,81,-99.99,,,-99.99,,2013-09-24 10:23:00,
2013-09-24 05:33:00,54.0,48.0,29.90,North,-999,-999.0,-999.0,81,-99.99,,,-99.99,,2013-09-24 10:33:00,
2013-09-24 05:53:00,54.0,48.0,29.91,North,-999,-999.0,-999.0,81,-99.99,,,-99.99,,2013-09-24 10:53:00,
2013-09-24 06:11:00,54.0,48.0,29.91,North,-999,-999.0,-999.0,81,-99.99,,,-99.99,,2013-09-24 11:11:00,
2013-09-24 06:22:00,54.0,50.0,29.91,North,-999,-999.0,-999.0,87,-99.99,,,-99.99,,2013-09-24 11:22:00,
2013-09-24 06:33:00,54.0,50.0,29.91,North,-999,-999.0,-999.0,87,-99.99,,,-99.99,,2013-09-24 11:33:00,
2013-09-24 06:52:00,54.0,50.0,29.91,North,-999,-999.0,-999.0,87,-99.99,,,-99.99,,2013-09-24 11:52:00,
2013-09-24 07:01:00,54.0,50.0,29.91,North,-999,-999.0,-999.0,87,-99.99,,,-99.99,,2013-09-24 12:01:00,
2013-09-24 07:22:00,54.0,48.0,29.92,North,-999,-999.0,-999.0,81,-99.99,,,-99.99,,2013-09-24 12:22:00,
2013-09-24 07:32:00,54.0,48.0,29.92,North,-999,-999.0,-999.0,81,-99.99,,,-99.99,,2013-09-24 12:32:00,
2013-09-24 07:52:00,54.0,50.0,29.92,North,-999,-999.0,-999.0,87,-99.99,,,-99.99,,2013-09-24 12:52:00,
2013-09-24 08:22:00,54.0,50.0,29.93,North,-999,-999.0,-999.0,87,-99.99,,,-99.99,,2013-09-24 13:22:00,
2013-09-24 08:32:00,54.0,50.0,29.93,North,-999,-999.0,-999.0,87,-99.99,,,-99.99,,2013-09-24 13:32:00,
2013-09-24 08:52:00,54.0,50.0,29.93,North,-999,-999.0,-999.0,87,-99.99,,,-99.99,,2013-09-24 13:52:00,
2013-09-24 09:12:00,54.0,50.0,29.94,North,-999,-999.0,-999.0,87,-99.99,,,-99.99,,2013-09-24 14:12:00,
2013-09-24 09:21:00,55.0,52.0,29.95,North,-999,-999.0,-999.0,87,-99.99,,,-99.99,,2013-09-24 14:21:00,
2013-09-24 09:42:00,55.0,52.0,29.96,North,-999,-999.0,-999.0,87,-99.99,,,-99.99,,2013-09-24 14:42:00,
2013-09-24 09:52:00,55.0,52.0,29.96,North,-999,-999.0,-999.0,87,-99.99,,,-99.99,,2013-09-24 14:52:00,
2013-09-24 10:11:00,55.0,52.0,29.96,North,-999,-999.0,-999.0,87,-99.99,,,-99.99,,2013-09-24 15:11:00,
2013-09-24 10:22:00,57.0,52.0,29.97,North,-999,-999.0,-999.0,82,-99.99,,,-99.99,,2013-09-24 15:22:00,
2013-09-24 10:33:00,57.0,52.0,29.97,North,-999,-999.0,-999.0,82,-99.99,,,-99.99,,2013-09-24 15:33:00,
2013-09-24 10:43:00,57.0,52.0,29.97,North,-999,-999.0,-999.0,82,-99.99,,,-99.99,,2013-09-24 15:43:00,
2013-09-24 10:53:00,57.0,52.0,29.97,North,-999,-999.0,-999.0,82,-99.99,,,-99.99,,2013-09-24 15:53:00,
2013-09-24 11:23:00,64.0,54.0,29.97,North,-999,-999.0,-999.0,67,-99.99,,,-99.99,,2013-09-24 16:23:00,
2013-09-24 11:33:00,64.0,54.0,29.97,North,-999,-999.0,-999.0,67,-99.99,,,-99.99,,2013-09-24 16:33:00,
2013-09-24 11:53:00,64.0,54.0,29.98,North,-999,-999.0,-999.0,67,-99.99,,,-99.99,,2013-09-24 16:53:00,
2013-09-24 12:13:00,66.0,55.0,29.98,North,-999,-999.0,-999.0,68,-99.99,,,-99.99,,2013-09-24 17:13:00,
2013-09-24 12:23:00,66.0,55.0,29.97,North,-999,-999.0,-999.0,68,-99.99,,,-99.99,,2013-09-24 17:23:00,
2013-09-24 12:43:00,68.0,55.0,29.97,North,-999,-999.0,-999.0,64,-99.99,,,-99.99,,2013-09-24 17:43:00,
2013-09-24 12:54:00,68.0,55.0,29.97,North,-999,-999.0,-999.0,64,-99.99,,,-99.99,,2013-09-24 17:54:00,
2013-09-24 13:03:00,68.0,55.0,29.97,North,-999,-999.0,-999.0,64,-99.99,,,-99.99,,2013-09-24 18:03:00,
2013-09-24 13:12:00,68.0,55.0,29.97,North,-999,-999.0,-999.0,64,-99.99,,,-99.99,,2013-09-24 18:12:00,
2013-09-24 13:22:00,70.0,55.0,29.97,North,-999,-999.0,-999.0,60,-99.99,,,-99.99,,2013-09-24 18:22:00,
2013-09-24 13:32:00,70.0,55.0,29.97,North,-999,-999.0,-999.0,60,-99.99,,,-99.99,,2013-09-24 18:32:00,
2013-09-24 13:52:00,70.0,55.0,29.97,North,-999,-999.0,-999.0,60,-99.99,,,-99.99,,2013-09-24 18:52:00,
2013-09-24 14:11:00,72.0,55.0,29.97,North,-999,-999.0,-999.0,56,-99.99,,,-99.99,,2013-09-24 19:11:00,
2013-09-24 14:22:00,72.0,55.0,29.97,North,-999,-999.0,-999.0,56,-99.99,,,-99.99,,2013-09-24 19:22:00,
2013-09-24 14:42:00,73.0,55.0,29.96,North,-999,-999.0,-999.0,53,-99.99,,,-99.99,,2013-09-24 19:42:00,
2013-09-24 14:52:00,73.0,55.0,29.96,North,-999,-999.0,-999.0,53,-99.99,,,-99.99,,2013-09-24 19:52:00,
2013-09-24 15:11:00,73.0,54.0,29.96,North,-999,-999.0,-999.0,49,-99.99,,,-99.99,,2013-09-24 20:11:00,
2013-09-24 15:22:00,73.0,55.0,29.95,North,-999,-999.0,-999.0,53,-99.99,,,-99.99,,2013-09-24 20:22:00,
2013-09-24 15:42:00,73.0,52.0,29.95,North,-999,-999.0,-999.0,46,-99.99,,,-99.99,,2013-09-24 20:42:00,
2013-09-24 15:52:00,73.0,52.0,29.95,North,-999,-999.0,-999.0,46,-99.99,,,-99.99,,2013-09-24 20:52:00,
2013-09-24 16:22:00,75.0,54.0,29.94,North,-999,-999.0,-999.0,46,-99.99,,,-99.99,,2013-09-24 21:22:00,
2013-09-24 16:33:00,75.0,54.0,29.94,North,-999,-999.0,-999.0,46,-99.99,,,-99.99,,2013-09-24 21:33:00,
2013-09-24 16:54:00,75.0,52.0,29.94,North,-999,-999.0,-999.0,43,-99.99,,,-99.99,,2013-09-24 21:54:00,
2013-09-24 17:23:00,75.0,52.0,29.94,North,-999,-999.0,-999.0,43,-99.99,,,-99.99,,2013-09-24 22:23:00,
2013-09-24 17:34:00,75.0,52.0,29.94,North,-999,-999.0,-999.0,43,-99.99,,,-99.99,,2013-09-24 22:34:00,
2013-09-24 18:13:00,75.0,54.0,29.94,North,-999,-999.0,-999.0,46,-99.99,,,-99.99,,2013-09-24 23:13:00,
2013-09-24 18:22:00,73.0,54.0,29.94,North,-999,-999.0,-999.0,49,-99.99,,,-99.99,,2013-09-24 23:22:00,
2013-09-24 18:33:00,73.0,54.0,29.94,North,-999,-999.0,-999.0,49,-99.99,,,-99.99,,2013-09-24 23:33:00,
2013-09-24 18:53:00,72.0,54.0,29.94,North,-999,-999.0,-999.0,53,-99.99,,,-99.99,,2013-09-24 23:53:00,
2013-09-24 19:02:00,72.0,54.0,29.94,North,-999,-999.0,-999.0,53,-99.99,,,-99.99,,2013-09-25 00:02:00,
2013-09-24 19:12:00,72.0,54.0,29.94,North,-999,-999.0,-999.0,53,-99.99,,,-99.99,,2013-09-25 00:12:00,
2013-09-24 19:22:00,68.0,55.0,29.94,North,-999,-999.0,-999.0,64,-99.99,,,-99.99,,2013-09-25 00:22:00,
2013-09-24 19:52:00,64.0,55.0,29.94,North,-999,-999.0,-999.0,72,-99.99,,,-99.99,,2013-09-25 00:52:00,
2013-09-24 20:02:00,64.0,55.0,29.94,North,-999,-999.0,-999.0,72,-99.99,,,-99.99,,2013-09-25 01:02:00,
2013-09-24 20:12:00,64.0,55.0,29.94,North,-999,-999.0,-999.0,72,-99.99,,,-99.99,,2013-09-25 01:12:00,
2013-09-24 20:21:00,63.0,55.0,29.94,North,-999,-999.0,-999.0,77,-99.99,,,-99.99,,2013-09-25 01:21:00,
2013-09-24 20:42:00,61.0,54.0,29.95,North,-999,-999.0,-999.0,77,-99.99,,,-99.99,,2013-09-25 01:42:00,
2013-09-24 20:52:00,61.0,54.0,29.95,North,-999,-999.0,-999.0,77,-99.99,,,-99.99,,2013-09-25 01:52:00,
2013-09-24 21:12:00,61.0,54.0,29.95,North,-999,-999.0,-999.0,77,-99.99,,,-99.99,,2013-09-25 02:12:00,
2013-09-24 21:22:00,61.0,54.0,29.95,North,-999,-999.0,-999.0,77,-99.99,,,-99.99,,2013-09-25 02:22:00,
2013-09-24 21:32:00,61.0,54.0,29.95,North,-999,-999.0,-999.0,77,-99.99,,,-99.99,,2013-09-25 02:32:00,
2013-09-24 21:52:00,61.0,52.0,29.95,North,-999,-999.0,-999.0,72,-99.99,,,-99.99,,2013-09-25 02:52:00,
2013-09-24 22:11:00,59.0,52.0,29.95,North,-999,-999.0,-999.0,76,-99.99,,,-99.99,,2013-09-25 03:11:00,
2013-09-24 22:23:00,57.0,52.0,29.95,North,-999,-999.0,-999.0,82,-99.99,,,-99.99,,2013-09-25 03:23:00,
2013-09-24 22:45:00,55.0,50.0,29.96,North,-999,-999.0,-999.0,81,-99.99,,,-99.99,,2013-09-25 03:45:00,
2013-09-24 22:54:00,55.0,50.0,29.96,North,-999,-999.0,-999.0,81,-99.99,,,-99.99,,2013-09-25 03:54:00,
2013-09-24 23:14:00,55.0,52.0,29.96,North,-999,-999.0,-999.0,87,-99.99,,,-99.99,,2013-09-25 04:14:00,
2013-09-24 23:24:00,54.0,50.0,29.96,North,-999,-999.0,-999.0,87,-99.99,,,-99.99,,2013-09-25 04:24:00,
2013-09-24 23:43:00,55.0,52.0,29.95,North,-999,-999.0,-999.0,87,-99.99,,,-99.99,,2013-09-25 04:43:00,